Time;durP1;ratioP1;P1;durP2;ratioP2;P2;SDS_P1;SDS_P2;PMS_P1;PMS_P2;Temp;Humidity;BMP_temperature;BMP_pressure;BME280_temperature;BME280_humidity;BME280_pressure;Samples;Min_cycle;Max_cycle;Signal;HPM_P1;HPM_P2
2022/07/25 00:01:34;;;;;;;6.60;6.30;;;;;;;-143.83;100.00;62900.06;5113195;28;20023;-63
2022/07/25 00:04:00;;;;;;;6.10;5.90;;;;;;;-143.83;100.00;62900.06;5111645;28;20047;-63
2022/07/25 00:06:25;;;;;;;6.35;6.07;;;;;;;-143.83;100.00;62900.06;5104464;28;20510;-62
2022/07/25 00:08:51;;;;;;;6.40;6.10;;;;;;;-143.83;100.00;62900.06;5108574;28;20020;-64
2022/07/25 00:11:16;;;;;;;6.13;5.93;;;;;;;-143.83;100.00;62900.06;5113743;27;20398;-64
2022/07/25 00:13:42;;;;;;;6.10;5.90;;;;;;;-143.83;100.00;62900.06;5113125;28;20019;-63
2022/07/25 00:16:07;;;;;;;6.00;5.80;;;;;;;-143.83;100.00;62900.06;5113183;28;20026;-62
2022/07/25 00:18:33;;;;;;;6.05;5.85;;;;;;;-143.83;100.00;62900.06;5103201;28;20016;-62
2022/07/25 00:20:58;;;;;;;6.50;6.20;;;;;;;-143.83;100.00;62900.06;5111522;28;20107;-62
2022/07/25 00:23:24;;;;;;;6.15;5.95;;;;;;;-143.83;100.00;62900.06;5112029;28;20424;-62
2022/07/25 00:25:49;;;;;;;6.13;5.93;;;;;;;-143.83;100.00;62900.06;5112718;28;20074;-63
2022/07/25 00:28:15;;;;;;;6.32;6.03;;;;;;;-143.83;100.00;62900.06;5102931;27;20067;-63
2022/07/25 00:30:40;;;;;;;6.20;6.00;;;;;;;-143.83;100.00;62900.06;5112881;28;20027;-63
2022/07/25 00:33:06;;;;;;;6.40;6.10;;;;;;;-143.83;100.00;62900.06;5111707;28;20024;-63
2022/07/25 00:35:31;;;;;;;6.13;5.93;;;;;;;-143.83;100.00;62900.06;5109181;28;20024;-63
2022/07/25 00:37:57;;;;;;;6.43;6.13;;;;;;;-143.83;100.00;62900.06;5112982;28;20430;-63
2022/07/25 00:40:22;;;;;;;6.40;6.10;;;;;;;-143.83;100.00;62900.06;5102342;28;20069;-63
2022/07/25 00:42:48;;;;;;;6.18;5.97;;;;;;;-143.83;100.00;62900.06;5112655;28;20032;-62
2022/07/25 00:45:13;;;;;;;6.40;6.10;;;;;;;-143.83;100.00;62900.06;5108880;28;20060;-62
2022/07/25 00:47:39;;;;;;;6.40;6.10;;;;;;;-143.83;100.00;62900.06;5112592;28;20031;-62
2022/07/25 00:50:05;;;;;;;6.40;6.10;;;;;;;-143.83;100.00;62900.06;5112393;28;20117;-63
2022/07/25 00:52:31;;;;;;;6.43;6.13;;;;;;;-143.83;100.00;62900.06;5102621;28;20463;-62
2022/07/25 00:54:56;;;;;;;6.53;6.22;;;;;;;-143.83;100.00;62900.06;5103961;28;20124;-62
2022/07/25 00:57:22;;;;;;;6.38;6.07;;;;;;;-143.83;100.00;62900.06;5111081;28;20037;-62
2022/07/25 00:59:47;;;;;;;6.22;6.00;;;;;;;-143.83;100.00;62900.06;5112233;28;20048;-62
2022/07/25 01:02:13;;;;;;;6.40;6.10;;;;;;;-143.83;100.00;62900.06;5105385;28;20096;-62
2022/07/25 01:04:39;;;;;;;6.10;5.90;;;;;;;-143.83;100.00;62900.06;5112142;28;20035;-62
2022/07/25 01:07:05;;;;;;;6.50;6.20;;;;;;;-143.83;100.00;62900.06;5117725;27;20032;-62
2022/07/25 01:09:32;;;;;;;6.43;6.13;;;;;;;-143.83;100.00;62900.06;5112210;28;20039;-62
2022/07/25 01:11:57;;;;;;;6.38;6.07;;;;;;;-143.83;100.00;62900.06;5112273;28;20024;-63
2022/07/25 01:14:23;;;;;;;6.20;6.00;;;;;;;-143.83;100.00;62900.06;5106284;28;20364;-62
2022/07/25 01:16:48;;;;;;;6.40;6.10;;;;;;;-143.83;100.00;62900.06;5106929;28;20123;-62
2022/07/25 01:19:14;;;;;;;6.22;6.00;;;;;;;-143.83;100.00;62900.06;5103239;28;20038;-63
2022/07/25 01:21:41;;;;;;;6.30;6.05;;;;;;;-143.83;100.00;62900.06;5111820;28;20444;-63
2022/07/25 01:24:07;;;;;;;6.13;5.93;;;;;;;-143.83;100.00;62900.06;5111969;28;20153;-64
2022/07/25 01:26:33;;;;;;;6.40;6.10;;;;;;;-143.83;100.00;62900.06;5112412;28;20065;-63
2022/07/25 01:28:58;;;;;;;6.50;6.20;;;;;;;-143.83;100.00;62900.06;5111918;28;20488;-63
2022/07/25 01:31:24;;;;;;;6.43;6.13;;;;;;;-143.83;100.00;62900.06;5112014;28;20031;-62
2022/07/25 01:33:50;;;;;;;6.30;6.00;;;;;;;-143.83;100.00;62900.06;5111842;28;20031;-61
2022/07/25 01:36:16;;;;;;;6.25;6.03;;;;;;;-143.83;100.00;62900.06;5111767;28;20027;-62
2022/07/25 01:38:42;;;;;;;6.20;6.00;;;;;;;-143.83;100.00;62900.06;5112349;28;20024;-61
2022/07/25 01:41:07;;;;;;;6.60;6.30;;;;;;;-143.83;100.00;62900.06;5111513;28;20050;-62
2022/07/25 01:43:33;;;;;;;6.10;5.90;;;;;;;-143.83;100.00;62900.06;5111909;28;20417;-63
2022/07/25 01:45:58;;;;;;;6.35;6.05;;;;;;;-143.83;100.00;62900.06;5111891;28;20027;-63
2022/07/25 01:48:24;;;;;;;6.20;6.00;;;;;;;-143.83;100.00;62900.06;5111901;28;20091;-62
2022/07/25 01:50:50;;;;;;;6.50;6.20;;;;;;;-143.83;100.00;62900.06;5105293;28;20038;-62
2022/07/25 01:53:16;;;;;;;6.13;5.93;;;;;;;-143.83;100.00;62900.06;5111352;28;20035;-62
2022/07/25 01:55:44;;;;;;;6.35;6.05;;;;;;;-143.83;100.00;62900.06;5111712;28;20024;-62
2022/07/25 01:58:09;;;;;;;6.40;6.10;;;;;;;-143.83;100.00;62900.06;5111879;28;20023;-62
2022/07/25 02:00:35;;;;;;;6.10;5.90;;;;;;;-143.83;100.00;62900.06;5112096;28;20024;-63
2022/07/25 02:05:45;;;;;;;6.07;5.88;;;;;;;-143.83;100.00;62900.06;5111856;28;20042;-63
2022/07/25 02:08:10;;;;;;;6.50;6.20;;;;;;;-143.83;100.00;62900.06;5099522;28;20028;-62
2022/07/25 02:10:36;;;;;;;6.28;6.00;;;;;;;-143.83;100.00;62900.06;5106353;28;20510;-63
2022/07/25 02:13:01;;;;;;;6.20;6.00;;;;;;;-143.83;100.00;62900.06;5106746;28;20023;-62
2022/07/25 02:15:27;;;;;;;6.55;6.25;;;;;;;-143.83;100.00;62900.06;5125856;28;20102;-63
2022/07/25 02:17:52;;;;;;;6.55;6.25;;;;;;;-143.83;100.00;62900.06;5109409;28;20425;-63
2022/07/25 02:20:18;;;;;;;6.50;6.20;;;;;;;-143.83;100.00;62900.06;5113013;28;20034;-62
2022/07/25 02:22:43;;;;;;;6.60;6.30;;;;;;;-143.83;100.00;62900.06;5114005;28;20099;-63
2022/07/25 02:25:09;;;;;;;6.55;6.25;;;;;;;-143.83;100.00;62900.06;5113387;28;20024;-62
2022/07/25 02:27:34;;;;;;;6.50;6.20;;;;;;;-143.83;100.00;62900.06;5107831;27;20026;-62
2022/07/25 02:30:00;;;;;;;6.13;5.93;;;;;;;-143.83;100.00;62900.06;5115027;28;20019;-62
2022/07/25 02:32:25;;;;;;;6.40;6.10;;;;;;;-143.83;100.00;62900.06;5113894;28;20023;-62
2022/07/25 02:34:51;;;;;;;6.10;5.90;;;;;;;-143.83;100.00;62900.06;5115082;28;20019;-62
2022/07/25 02:37:17;;;;;;;6.47;6.18;;;;;;;-143.83;100.00;62900.06;5113583;28;20055;-63
2022/07/25 02:39:42;;;;;;;6.43;6.13;;;;;;;-143.83;100.00;62900.06;5114965;27;20079;-63
2022/07/25 02:42:08;;;;;;;6.45;6.15;;;;;;;-143.83;100.00;62900.06;5113678;28;20264;-63
2022/07/25 02:44:33;;;;;;;6.10;5.90;;;;;;;-143.83;100.00;62900.06;5114180;27;20023;-63
2022/07/25 02:46:59;;;;;;;6.20;6.00;;;;;;;-143.83;100.00;62900.06;5114716;28;20034;-63
2022/07/25 02:49:24;;;;;;;6.50;6.20;;;;;;;-143.83;100.00;62900.06;5114864;28;20141;-62
2022/07/25 02:51:50;;;;;;;6.40;6.10;;;;;;;-143.83;100.00;62900.06;5114835;28;20024;-62
2022/07/25 02:54:15;;;;;;;6.40;6.10;;;;;;;-143.83;100.00;62900.06;5114322;28;20111;-63
2022/07/25 02:56:41;;;;;;;6.40;6.10;;;;;;;-143.83;100.00;62900.06;5114678;28;20030;-64
2022/07/25 02:59:06;;;;;;;6.20;6.00;;;;;;;-143.83;100.00;62900.06;5112407;28;20035;-62
2022/07/25 03:01:32;;;;;;;6.40;6.10;;;;;;;-143.83;100.00;62900.06;5117059;27;20528;-62
2022/07/25 03:03:57;;;;;;;6.30;6.00;;;;;;;-143.83;100.00;62900.06;5113174;28;20023;-63
2022/07/25 03:06:23;;;;;;;6.70;6.40;;;;;;;-143.83;100.00;62900.06;5111943;28;20475;-62
2022/07/25 03:08:49;;;;;;;6.50;6.20;;;;;;;-143.83;100.00;62900.06;5105237;28;20490;-62
2022/07/25 03:11:15;;;;;;;6.68;6.38;;;;;;;-143.83;100.00;62900.06;5112929;28;20023;-62
2022/07/25 03:13:41;;;;;;;6.35;6.07;;;;;;;-143.83;100.00;62900.06;5114109;28;20098;-62
2022/07/25 03:16:08;;;;;;;6.65;6.35;;;;;;;-143.83;100.00;62900.06;5126923;27;20094;-63
2022/07/25 03:18:34;;;;;;;6.50;6.20;;;;;;;-143.83;100.00;62900.06;5106668;27;20024;-63
2022/07/25 03:20:59;;;;;;;6.47;6.18;;;;;;;-143.83;100.00;62900.06;5113549;28;20038;-63
2022/07/25 03:23:26;;;;;;;6.50;6.20;;;;;;;-143.83;100.00;62900.06;5124891;27;20085;-63
2022/07/25 03:25:52;;;;;;;6.50;6.20;;;;;;;-143.83;100.00;62900.06;5100731;28;20493;-63
2022/07/25 03:28:18;;;;;;;6.45;6.15;;;;;;;-143.83;100.00;62900.06;5113843;28;20047;-64
2022/07/25 03:30:44;;;;;;;6.90;6.60;;;;;;;-143.83;100.00;62900.06;5113214;28;20024;-64
2022/07/25 03:33:10;;;;;;;6.88;6.57;;;;;;;-143.83;100.00;62900.06;5106334;27;20050;-63
2022/07/25 03:35:38;;;;;;;6.70;6.40;;;;;;;-143.83;100.00;62900.06;5114218;27;20475;-63
2022/07/25 03:38:04;;;;;;;6.53;6.22;;;;;;;-143.83;100.00;62900.06;5112399;28;20441;-63
2022/07/25 03:40:30;;;;;;;6.70;6.40;;;;;;;-143.83;100.00;62900.06;5113569;28;20043;-64
2022/07/25 03:42:56;;;;;;;6.93;6.63;;;;;;;-143.83;100.00;62900.06;5112735;28;20076;-63
2022/07/25 03:45:21;;;;;;;6.70;6.40;;;;;;;-143.83;100.00;62900.06;5106890;28;20023;-62
2022/07/25 03:47:47;;;;;;;6.75;6.45;;;;;;;-143.83;100.00;62900.06;5113679;28;20028;-63
2022/07/25 03:50:13;;;;;;;6.80;6.50;;;;;;;-143.83;100.00;62900.06;5111072;28;20053;-63
2022/07/25 03:52:38;;;;;;;6.90;6.60;;;;;;;-143.83;100.00;62900.06;5106986;27;20032;-63
2022/07/25 03:55:06;;;;;;;6.90;6.60;;;;;;;-143.83;100.00;62900.06;5117713;27;20081;-62
2022/07/25 03:57:31;;;;;;;6.80;6.50;;;;;;;-143.83;100.00;62900.06;5114864;27;20023;-63
2022/07/25 03:59:57;;;;;;;6.90;6.60;;;;;;;-143.83;100.00;62900.06;5113120;28;20532;-63
2022/07/25 04:02:22;;;;;;;6.78;6.47;;;;;;;-143.83;100.00;62900.06;5109983;28;20019;-63
2022/07/25 04:04:48;;;;;;;6.90;6.60;;;;;;;-143.83;100.00;62900.06;5104229;28;20446;-63
2022/07/25 04:07:13;;;;;;;6.90;6.60;;;;;;;-143.83;100.00;62900.06;5110613;28;20064;-63
2022/07/25 04:09:39;;;;;;;7.00;6.70;;;;;;;-143.83;100.00;62900.06;5106158;27;20027;-62
2022/07/25 04:12:04;;;;;;;7.00;6.70;;;;;;;-143.83;100.00;62900.06;5112753;28;20080;-63
2022/07/25 04:14:30;;;;;;;6.90;6.60;;;;;;;-143.83;100.00;62900.06;5109340;28;20024;-63
2022/07/25 04:16:55;;;;;;;7.00;6.70;;;;;;;-143.83;100.00;62900.06;5111245;28;20544;-63
2022/07/25 04:19:21;;;;;;;7.20;6.90;;;;;;;-143.83;100.00;62900.06;5112651;28;20073;-62
2022/07/25 04:21:46;;;;;;;7.30;7.00;;;;;;;-143.83;100.00;62900.06;5107410;28;20436;-63
2022/07/25 04:24:12;;;;;;;7.18;6.88;;;;;;;-143.83;100.00;62900.06;5111434;28;20039;-63
2022/07/25 04:26:37;;;;;;;7.20;6.90;;;;;;;-143.83;100.00;62900.06;5121750;27;20057;-63
2022/07/25 04:29:03;;;;;;;6.97;6.68;;;;;;;-143.83;100.00;62900.06;5115280;27;20027;-63
2022/07/25 04:31:29;;;;;;;7.07;6.78;;;;;;;-143.83;100.00;62900.06;5121393;27;20492;-63
2022/07/25 04:33:54;;;;;;;7.20;6.90;;;;;;;-143.83;100.00;62900.06;5112705;28;20130;-63
2022/07/25 04:36:20;;;;;;;7.10;6.80;;;;;;;-143.83;100.00;62900.06;5116841;27;20039;-63
2022/07/25 04:38:45;;;;;;;7.20;6.90;;;;;;;-143.83;100.00;62900.06;5118253;27;20023;-63
2022/07/25 04:41:11;;;;;;;7.03;6.72;;;;;;;-143.83;100.00;62900.06;5111531;27;20059;-64
2022/07/25 04:43:36;;;;;;;7.00;6.70;;;;;;;-143.83;100.00;62900.06;5109825;27;20030;-62
2022/07/25 04:46:02;;;;;;;7.00;6.70;;;;;;;-143.83;100.00;62900.06;5123652;27;20442;-62
2022/07/25 04:48:27;;;;;;;7.20;6.90;;;;;;;-143.83;100.00;62900.06;5123788;27;20033;-63
2022/07/25 04:50:53;;;;;;;7.00;6.70;;;;;;;-143.83;100.00;62900.06;5115251;27;20011;-63
2022/07/25 04:53:19;;;;;;;7.10;6.80;;;;;;;-143.83;100.00;62900.06;5111197;27;20036;-63
2022/07/25 04:55:44;;;;;;;7.22;6.93;;;;;;;-143.83;100.00;62900.06;5112197;28;20554;-63
2022/07/25 04:58:10;;;;;;;7.22;6.93;;;;;;;-143.83;100.00;62900.06;5111484;28;20463;-63
2022/07/25 05:00:35;;;;;;;7.20;6.90;;;;;;;-143.83;100.00;62900.06;5110391;27;20474;-63
2022/07/25 05:03:01;;;;;;;7.07;6.78;;;;;;;-143.83;100.00;62900.06;5112180;28;20048;-63
2022/07/25 05:05:26;;;;;;;7.20;6.90;;;;;;;-143.83;100.00;62900.06;5097135;28;20031;-63
2022/07/25 05:07:57;;;;;;;7.20;6.90;;;;;;;-143.83;100.00;62900.06;5112269;28;20061;-63
2022/07/25 05:10:24;;;;;;;7.38;7.07;;;;;;;-143.83;100.00;62900.06;5111059;28;20550;-64
2022/07/25 05:12:50;;;;;;;7.32;7.03;;;;;;;-143.83;100.00;62900.06;5108720;28;20040;-64
2022/07/25 05:15:15;;;;;;;7.40;7.10;;;;;;;-143.83;100.00;62900.06;5099897;28;20389;-64
2022/07/25 05:17:41;;;;;;;7.30;7.00;;;;;;;-143.83;100.00;62900.06;5116339;28;20030;-62
2022/07/25 05:20:07;;;;;;;7.43;7.13;;;;;;;-143.83;100.00;62900.06;5112880;28;20023;-64
2022/07/25 05:22:33;;;;;;;7.28;6.97;;;;;;;-143.83;100.00;62900.06;5111903;28;20028;-63
2022/07/25 05:25:01;;;;;;;7.50;7.20;;;;;;;-143.83;100.00;62900.06;5109865;28;20028;-63
2022/07/25 05:27:27;;;;;;;7.60;7.30;;;;;;;-143.83;100.00;62900.06;5108336;28;20085;-63
2022/07/25 05:29:52;;;;;;;7.50;7.20;;;;;;;-143.83;100.00;62900.06;5111834;28;20483;-62
2022/07/25 05:32:18;;;;;;;7.28;6.97;;;;;;;-143.83;100.00;62900.06;5108752;28;20036;-63
2022/07/25 05:34:44;;;;;;;7.60;7.30;;;;;;;-143.83;100.00;62900.06;5102172;28;20030;-63
2022/07/25 05:37:10;;;;;;;7.25;6.95;;;;;;;-143.83;100.00;62900.06;5101979;28;20028;-63
2022/07/25 05:39:38;;;;;;;7.22;6.93;;;;;;;-143.83;100.00;62900.06;5111855;28;20072;-63
2022/07/25 05:42:04;;;;;;;7.30;7.00;;;;;;;-143.83;100.00;62900.06;5111078;28;20093;-63
2022/07/25 05:44:29;;;;;;;7.50;7.20;;;;;;;-143.83;100.00;62900.06;5111558;28;20028;-64
2022/07/25 05:46:55;;;;;;;7.38;7.07;;;;;;;-143.83;100.00;62900.06;5110610;28;20070;-63
2022/07/25 05:49:20;;;;;;;7.10;6.80;;;;;;;-143.83;100.00;62900.06;5116514;28;20032;-63
2022/07/25 05:51:46;;;;;;;7.30;7.00;;;;;;;-143.83;100.00;62900.06;5109168;28;20043;-63
2022/07/25 05:54:11;;;;;;;7.38;7.07;;;;;;;-143.83;100.00;62900.06;5114045;28;20020;-64
2022/07/25 05:56:37;;;;;;;7.25;6.95;;;;;;;-143.83;100.00;62900.06;5112793;28;20387;-64
2022/07/25 05:59:03;;;;;;;7.30;7.00;;;;;;;-143.83;100.00;62900.06;5113130;28;20134;-64
2022/07/25 06:01:28;;;;;;;7.45;7.15;;;;;;;-143.83;100.00;62900.06;5113261;28;20094;-64
2022/07/25 06:03:54;;;;;;;7.40;7.10;;;;;;;-143.83;100.00;62900.06;5124018;27;20396;-63
2022/07/25 06:06:19;;;;;;;7.30;7.00;;;;;;;-143.83;100.00;62900.06;5110858;28;20034;-63
2022/07/25 06:08:45;;;;;;;7.50;7.20;;;;;;;-143.83;100.00;62900.06;5115167;28;20539;-63
2022/07/25 06:11:10;;;;;;;7.28;6.97;;;;;;;-143.83;100.00;62900.06;5114943;28;20027;-62
2022/07/25 06:13:36;;;;;;;7.18;6.88;;;;;;;-143.83;100.00;62900.06;5115140;28;20035;-62
2022/07/25 06:16:01;;;;;;;7.38;7.07;;;;;;;-143.83;100.00;62900.06;5115374;28;20146;-62
2022/07/25 06:18:28;;;;;;;7.18;6.88;;;;;;;-143.83;100.00;62900.06;5108625;27;20023;-63
2022/07/25 06:20:53;;;;;;;7.20;6.90;;;;;;;-143.83;100.00;62900.06;5110606;28;20037;-63
2022/07/25 06:23:19;;;;;;;7.40;7.10;;;;;;;-143.83;100.00;62900.06;5114797;28;20672;-64
2022/07/25 06:25:45;;;;;;;7.22;6.93;;;;;;;-143.83;100.00;62900.06;5115422;28;20020;-63
2022/07/25 06:28:13;;;;;;;7.50;7.20;;;;;;;-143.83;100.00;62900.06;5115197;28;20040;-63
2022/07/25 06:30:40;;;;;;;7.50;7.20;;;;;;;-143.83;100.00;62900.06;5115241;28;20031;-62
2022/07/25 06:33:06;;;;;;;7.70;7.40;;;;;;;-143.83;100.00;62900.06;5109847;28;20078;-62
2022/07/25 06:35:31;;;;;;;7.55;7.25;;;;;;;-143.83;100.00;62900.06;5101808;28;20024;-62
2022/07/25 06:37:57;;;;;;;7.22;6.93;;;;;;;-143.83;100.00;62900.06;5105295;28;20440;-63
2022/07/25 06:40:22;;;;;;;7.45;7.15;;;;;;;-143.83;100.00;62900.06;5111505;27;20016;-63
2022/07/25 06:42:48;;;;;;;7.60;7.30;;;;;;;-143.83;100.00;62900.06;5104459;28;20024;-63
2022/07/25 06:45:15;;;;;;;7.55;7.25;;;;;;;-143.83;100.00;62900.06;5127790;27;20110;-63
2022/07/25 06:47:41;;;;;;;7.60;7.30;;;;;;;-143.83;100.00;62900.06;5114804;28;20023;-63
2022/07/25 06:50:10;;;;;;;7.55;7.25;;;;;;;-143.83;100.00;62900.06;5111446;28;20499;-63
2022/07/25 06:52:35;;;;;;;7.40;7.10;;;;;;;-143.83;100.00;62900.06;5105614;28;20051;-63
2022/07/25 06:55:03;;;;;;;7.40;7.10;;;;;;;-143.83;100.00;62900.06;5109903;28;20059;-63
2022/07/25 06:57:29;;;;;;;7.53;7.22;;;;;;;-143.83;100.00;62900.06;5101247;28;20031;-63
2022/07/25 06:59:54;;;;;;;7.35;7.05;;;;;;;-143.83;100.00;62900.06;5104623;28;20119;-62
2022/07/25 07:02:20;;;;;;;7.50;7.20;;;;;;;-143.83;100.00;62900.06;5111161;28;20020;-62
2022/07/25 07:04:45;;;;;;;7.22;6.93;;;;;;;-143.83;100.00;62900.06;5113560;28;20028;-62
2022/07/25 07:07:12;;;;;;;7.32;7.03;;;;;;;-143.83;100.00;62900.06;5114711;28;20020;-62
2022/07/25 07:09:37;;;;;;;7.38;7.07;;;;;;;-143.83;100.00;62900.06;5100108;28;20043;-61
2022/07/25 07:12:03;;;;;;;7.50;7.20;;;;;;;-143.83;100.00;62900.06;5114321;28;20112;-62
2022/07/25 07:14:28;;;;;;;7.28;6.97;;;;;;;-143.83;100.00;62900.06;5110164;28;20039;-62
2022/07/25 07:16:54;;;;;;;7.20;6.90;;;;;;;-143.83;100.00;62900.06;5104299;28;20027;-62
2022/07/25 07:19:19;;;;;;;7.13;6.82;;;;;;;-143.83;100.00;62900.06;5112856;28;20031;-63
2022/07/25 07:21:45;;;;;;;7.07;6.78;;;;;;;-143.83;100.00;62900.06;5114119;28;20019;-62
2022/07/25 07:24:10;;;;;;;7.40;7.10;;;;;;;-143.83;100.00;62900.06;5100007;28;20024;-62
2022/07/25 07:26:36;;;;;;;7.25;6.95;;;;;;;-143.83;100.00;62900.06;5113997;28;20031;-61
2022/07/25 07:29:02;;;;;;;7.30;7.00;;;;;;;-143.83;100.00;62900.06;5113877;28;20027;-62
2022/07/25 07:31:28;;;;;;;6.90;6.60;;;;;;;-143.83;100.00;62900.06;5109914;28;20027;-62
2022/07/25 07:33:54;;;;;;;7.15;6.85;;;;;;;-143.83;100.00;62900.06;5104256;28;20030;-62
2022/07/25 07:36:20;;;;;;;7.55;7.25;;;;;;;-143.83;100.00;62900.06;5113638;28;20106;-63
2022/07/25 07:38:47;;;;;;;7.53;7.22;;;;;;;-143.83;100.00;62900.06;5113812;28;20429;-63
2022/07/25 07:41:13;;;;;;;7.25;6.95;;;;;;;-143.83;100.00;62900.06;5123709;27;20047;-63
2022/07/25 07:43:38;;;;;;;7.40;7.10;;;;;;;-143.83;100.00;62900.06;5113704;28;20379;-62
2022/07/25 07:46:04;;;;;;;7.20;6.90;;;;;;;-143.83;100.00;62900.06;5110381;28;20023;-62
2022/07/25 07:48:30;;;;;;;7.50;7.20;;;;;;;-143.83;100.00;62900.06;5093526;28;20380;-62
2022/07/25 07:50:57;;;;;;;7.18;6.88;;;;;;;-143.83;100.00;62900.06;5101889;28;20036;-62
2022/07/25 07:55:42;;;;;;;7.07;6.78;;;;;;;-143.83;100.00;62900.06;5113133;28;20076;-63
2022/07/25 07:56:08;;;;;;;7.05;6.75;;;;;;;-143.83;100.00;62900.06;5102519;28;20031;-62
2022/07/25 07:58:34;;;;;;;7.20;6.90;;;;;;;-143.83;100.00;62900.06;5096003;28;20020;-63
2022/07/25 08:00:59;;;;;;;7.07;6.78;;;;;;;-143.83;100.00;62900.06;5107720;28;20034;-63
2022/07/25 08:03:25;;;;;;;7.07;6.78;;;;;;;-143.83;100.00;62900.06;5113336;27;20019;-62
2022/07/25 08:05:51;;;;;;;7.10;6.80;;;;;;;-143.83;100.00;62900.06;5113111;28;20092;-62
2022/07/25 08:08:16;;;;;;;7.00;6.70;;;;;;;-143.83;100.00;62900.06;5113105;28;20034;-62
2022/07/25 08:10:45;;;;;;;7.25;6.95;;;;;;;-143.83;100.00;62900.06;5112994;28;20102;-62
2022/07/25 08:13:21;;;;;;;7.10;6.80;;;;;;;-143.83;100.00;62900.06;5112900;28;20059;-62
2022/07/25 08:15:50;;;;;;;6.93;6.63;;;;;;;-143.83;100.00;62900.06;5113235;28;20038;-63
2022/07/25 08:18:17;;;;;;;6.90;6.60;;;;;;;-143.83;100.00;62900.06;5112922;28;20027;-62
2022/07/25 08:20:43;;;;;;;7.15;6.85;;;;;;;-143.83;100.00;62900.06;5113066;28;20035;-63
2022/07/25 08:23:12;;;;;;;7.20;6.90;;;;;;;-143.83;100.00;62900.06;5111682;28;20051;-61
2022/07/25 08:25:38;;;;;;;7.10;6.80;;;;;;;-143.83;100.00;62900.06;5125296;27;20011;-62
2022/07/25 08:28:05;;;;;;;7.30;7.00;;;;;;;-143.83;100.00;62900.06;5112703;28;20027;-62
2022/07/25 08:30:31;;;;;;;7.10;6.80;;;;;;;-143.83;100.00;62900.06;5107721;28;20115;-62
2022/07/25 08:33:02;;;;;;;7.20;6.90;;;;;;;-143.83;100.00;62900.06;5092194;28;20012;-62
2022/07/25 08:35:28;;;;;;;7.20;6.90;;;;;;;-143.83;100.00;62900.06;5110782;28;20084;-62
2022/07/25 08:37:54;;;;;;;7.10;6.80;;;;;;;-143.83;100.00;62900.06;5119000;27;20028;-62
2022/07/25 08:40:25;;;;;;;7.20;6.90;;;;;;;-143.83;100.00;62900.06;5112315;28;20035;-63
2022/07/25 08:42:53;;;;;;;7.00;6.70;;;;;;;-143.83;100.00;62900.06;5126465;27;20414;-63
2022/07/25 08:45:19;;;;;;;7.13;6.82;;;;;;;-143.83;100.00;62900.06;5112485;28;20047;-62
2022/07/25 08:47:50;;;;;;;7.00;6.70;;;;;;;-143.83;100.00;62900.06;5112485;28;20080;-62
2022/07/25 08:50:19;;;;;;;6.80;6.50;;;;;;;-143.83;100.00;62900.06;5111001;28;20023;-62
2022/07/25 08:52:48;;;;;;;6.90;6.60;;;;;;;-143.83;100.00;62900.06;5112512;28;20026;-62
2022/07/25 08:55:18;;;;;;;7.00;6.70;;;;;;;-143.83;100.00;62900.06;5112022;28;20023;-63
2022/07/25 08:57:46;;;;;;;7.10;6.80;;;;;;;-143.83;100.00;62900.06;5111979;28;20102;-62
2022/07/25 09:00:15;;;;;;;7.32;7.03;;;;;;;-143.83;100.00;62900.06;5120872;27;20114;-62
2022/07/25 09:02:41;;;;;;;6.95;6.65;;;;;;;-143.83;100.00;62900.06;5109091;27;20391;-62
2022/07/25 09:05:07;;;;;;;7.20;6.90;;;;;;;-143.83;100.00;62900.06;5092077;28;20035;-62
2022/07/25 09:07:38;;;;;;;7.00;6.70;;;;;;;-143.83;100.00;62900.06;5103261;28;20032;-62
2022/07/25 09:10:20;;;;;;;6.93;6.63;;;;;;;-143.83;100.00;62900.06;5112674;28;20020;-64
2022/07/25 09:12:53;;;;;;;7.00;6.70;;;;;;;-143.83;100.00;62900.06;5112182;28;20067;-62
2022/07/25 09:15:28;;;;;;;6.65;6.35;;;;;;;-143.83;100.00;62900.06;5117930;28;20052;-62
2022/07/25 09:17:56;;;;;;;6.90;6.60;;;;;;;-143.83;100.00;62900.06;5121841;27;20505;-63
2022/07/25 09:20:22;;;;;;;6.60;6.30;;;;;;;-143.83;100.00;62900.06;5111972;28;20081;-62
2022/07/25 09:22:47;;;;;;;6.90;6.60;;;;;;;-143.83;100.00;62900.06;5112309;28;20011;-62
2022/07/25 09:25:27;;;;;;;6.80;6.50;;;;;;;-143.83;100.00;62900.06;5112056;28;20024;-63
2022/07/25 09:27:52;;;;;;;6.90;6.60;;;;;;;-143.83;100.00;62900.06;5112444;28;20031;-62
2022/07/25 09:30:19;;;;;;;6.97;6.68;;;;;;;-143.83;100.00;62900.06;5115739;28;20035;-62
2022/07/25 09:32:44;;;;;;;6.75;6.45;;;;;;;-143.83;100.00;62900.06;5121963;27;20564;-61
2022/07/25 09:35:11;;;;;;;6.80;6.50;;;;;;;-143.83;100.00;62900.06;5118376;27;20031;-61
2022/07/25 09:37:37;;;;;;;6.90;6.60;;;;;;;-143.83;100.00;62900.06;5115832;28;20542;-63
2022/07/25 09:40:12;;;;;;;6.90;6.60;;;;;;;-143.83;100.00;62900.06;5115945;28;20047;-61
2022/07/25 09:42:38;;;;;;;6.80;6.50;;;;;;;-143.83;100.00;62900.06;5115759;28;20131;-62
2022/07/25 09:45:11;;;;;;;6.70;6.40;;;;;;;-143.83;100.00;62900.06;5112774;28;20065;-62
2022/07/25 09:47:50;;;;;;;6.60;6.30;;;;;;;-143.83;100.00;62900.06;5115570;28;20023;-63
2022/07/25 09:50:17;;;;;;;6.90;6.60;;;;;;;-143.83;100.00;62900.06;5116094;28;20027;-62
2022/07/25 09:52:44;;;;;;;6.80;6.50;;;;;;;-143.83;100.00;62900.06;5115684;28;20023;-62
2022/07/25 09:55:12;;;;;;;7.10;6.80;;;;;;;-143.83;100.00;62900.06;5115587;28;20035;-62
2022/07/25 09:57:39;;;;;;;6.78;6.47;;;;;;;-143.83;100.00;62900.06;5115660;28;20024;-62
2022/07/25 10:00:07;;;;;;;6.90;6.60;;;;;;;-143.83;100.00;62900.06;5115671;28;20019;-63
2022/07/25 10:02:47;;;;;;;7.20;6.90;;;;;;;-143.83;100.00;62900.06;5111816;28;20019;-62
2022/07/25 10:05:18;;;;;;;6.90;6.60;;;;;;;-143.83;100.00;62900.06;5115464;28;20049;-61
2022/07/25 10:07:49;;;;;;;6.88;6.57;;;;;;;-143.83;100.00;62900.06;5115582;28;20028;-62
2022/07/25 10:10:28;;;;;;;6.80;6.50;;;;;;;-143.83;100.00;62900.06;5115355;28;20098;-62
2022/07/25 10:13:05;;;;;;;7.00;6.70;;;;;;;-143.83;100.00;62900.06;5115194;28;20027;-63
2022/07/25 10:15:46;;;;;;;6.80;6.50;;;;;;;-143.83;100.00;62900.06;5115257;28;20024;-62
2022/07/25 10:18:13;;;;;;;6.80;6.50;;;;;;;-143.83;100.00;62900.06;5111932;28;20031;-62
2022/07/25 10:20:38;;;;;;;7.00;6.70;;;;;;;-143.83;100.00;62900.06;5104689;28;20028;-62
2022/07/25 10:23:23;;;;;;;6.97;6.68;;;;;;;-143.83;100.00;62900.06;5114617;28;20031;-63
2022/07/25 10:26:08;;;;;;;6.90;6.60;;;;;;;-143.83;100.00;62900.06;5115050;28;20023;-62
2022/07/25 10:28:40;;;;;;;6.90;6.60;;;;;;;-143.83;100.00;62900.06;5101243;27;20047;-63
2022/07/25 10:31:23;;;;;;;6.90;6.60;;;;;;;-143.83;100.00;62900.06;5115137;28;20024;-62
2022/07/25 10:33:54;;;;;;;6.85;6.55;;;;;;;-143.83;100.00;62900.06;5115089;28;20383;-62
2022/07/25 10:36:21;;;;;;;6.75;6.45;;;;;;;-143.83;100.00;62900.06;5114730;28;20032;-62
2022/07/25 10:38:50;;;;;;;7.00;6.70;;;;;;;-143.83;100.00;62900.06;5107731;28;20506;-62
2022/07/25 10:41:16;;;;;;;6.90;6.60;;;;;;;-143.83;100.00;62900.06;5106995;28;20415;-62
2022/07/25 10:43:45;;;;;;;6.65;6.35;;;;;;;-143.83;100.00;62900.06;5094278;28;20020;-63
2022/07/25 10:46:21;;;;;;;6.80;6.50;;;;;;;-143.83;100.00;62900.06;5094528;28;20057;-63
2022/07/25 10:48:59;;;;;;;6.72;6.43;;;;;;;-143.83;100.00;62900.06;5111886;28;20670;-62
2022/07/25 10:51:27;;;;;;;6.70;6.40;;;;;;;-143.83;100.00;62900.06;5114428;28;20051;-63
2022/07/25 10:53:52;;;;;;;6.80;6.50;;;;;;;-143.83;100.00;62900.06;5114591;28;20020;-63
2022/07/25 10:56:24;;;;;;;6.90;6.60;;;;;;;-143.83;100.00;62900.06;5112417;28;20046;-64
2022/07/25 10:58:56;;;;;;;6.75;6.45;;;;;;;-143.83;100.00;62900.06;5114604;28;20023;-62
2022/07/25 11:01:31;;;;;;;6.70;6.40;;;;;;;-143.83;100.00;62900.06;5114501;28;20035;-62
2022/07/25 11:04:02;;;;;;;6.90;6.60;;;;;;;-143.83;100.00;62900.06;5110332;28;20020;-63
2022/07/25 11:06:39;;;;;;;6.82;6.53;;;;;;;-143.83;100.00;62900.06;5114541;28;20085;-61
2022/07/25 11:09:19;;;;;;;6.80;6.50;;;;;;;-143.83;100.00;62900.06;5114495;28;20019;-62
2022/07/25 11:11:49;;;;;;;6.65;6.35;;;;;;;-143.83;100.00;62900.06;5102018;28;20099;-63